sensor_id;sensor_type;location;lat;lon;timestamp;pressure;altitude;pressure_sealevel;temperature;humidity
69766;BME280;57039;48.014;21.384;2023-03-13T09:01:29;101034.09;;;5.70;82.87
69766;BME280;57039;48.014;21.384;2023-03-13T09:02:33;101029.16;;;5.59;81.85
69766;BME280;57039;48.014;21.384;2023-03-13T09:03:37;101022.31;;;5.57;82.44
69766;BME280;57039;48.014;21.384;2023-03-13T09:04:40;101027.31;;;5.64;82.98
69766;BME280;57039;48.014;21.384;2023-03-13T09:05:43;101034.28;;;5.64;82.85
69766;BME280;57039;48.014;21.384;2023-03-13T09:06:57;101034.97;;;5.70;83.12
69766;BME280;57039;48.014;21.384;2023-03-13T09:08:01;101027.97;;;5.72;82.27
69766;BME280;57039;48.014;21.384;2023-03-13T09:09:05;101014.91;;;5.74;80.76
69766;BME280;57039;48.014;21.384;2023-03-13T09:10:08;101022.75;;;5.72;81.38
69766;BME280;57039;48.014;21.384;2023-03-13T09:11:20;101015.63;;;5.79;81.52
69766;BME280;57039;48.014;21.384;2023-03-13T09:12:23;101017.06;;;5.91;81.46
69766;BME280;57039;48.014;21.384;2023-03-13T09:13:35;101017.19;;;5.86;81.34
69766;BME280;57039;48.014;21.384;2023-03-13T09:14:39;101019.66;;;5.91;80.25
69766;BME280;57039;48.014;21.384;2023-03-13T09:15:41;101017.81;;;5.96;80.76
69766;BME280;57039;48.014;21.384;2023-03-13T09:16:44;101022.03;;;6.00;80.49
69766;BME280;57039;48.014;21.384;2023-03-13T09:17:49;101016.22;;;6.22;81.02
69766;BME280;57039;48.014;21.384;2023-03-13T09:18:53;101014.78;;;6.11;80.20
69766;BME280;57039;48.014;21.384;2023-03-13T09:19:56;101018.12;;;6.16;79.03
69766;BME280;57039;48.014;21.384;2023-03-13T09:21:06;101008.53;;;6.17;78.95
69766;BME280;57039;48.014;21.384;2023-03-13T09:22:09;101026.87;;;6.14;78.78
69766;BME280;57039;48.014;21.384;2023-03-13T09:23:12;101020.84;;;6.12;78.20
69766;BME280;57039;48.014;21.384;2023-03-13T09:24:16;101006.31;;;6.34;78.71
69766;BME280;57039;48.014;21.384;2023-03-13T09:25:19;100998.03;;;6.20;77.42
69766;BME280;57039;48.014;21.384;2023-03-13T09:26:22;101013.56;;;6.23;78.19
69766;BME280;57039;48.014;21.384;2023-03-13T09:27:25;101009.66;;;6.38;78.71
69766;BME280;57039;48.014;21.384;2023-03-13T09:28:31;101014.62;;;6.46;77.89
69766;BME280;57039;48.014;21.384;2023-03-13T09:29:34;101008.38;;;6.51;77.38
69766;BME280;57039;48.014;21.384;2023-03-13T09:30:41;101005.97;;;6.45;77.42
69766;BME280;57039;48.014;21.384;2023-03-13T09:31:44;101011.09;;;6.48;77.39
69766;BME280;57039;48.014;21.384;2023-03-13T09:32:47;101004.47;;;6.38;76.54
69766;BME280;57039;48.014;21.384;2023-03-13T09:33:50;100994.88;;;6.38;77.71
69766;BME280;57039;48.014;21.384;2023-03-13T09:34:53;101005.31;;;6.67;78.29
69766;BME280;57039;48.014;21.384;2023-03-13T09:35:57;101007.25;;;6.60;77.96
69766;BME280;57039;48.014;21.384;2023-03-13T09:37:00;101007.91;;;6.67;78.26
69766;BME280;57039;48.014;21.384;2023-03-13T09:38:05;101012.63;;;6.83;78.84
69766;BME280;57039;48.014;21.384;2023-03-13T09:39:09;101003.16;;;7.07;79.00
69766;BME280;57039;48.014;21.384;2023-03-13T09:40:14;101008.88;;;6.92;78.23
69766;BME280;57039;48.014;21.384;2023-03-13T09:42:43;101014.41;;;7.09;77.41
69766;BME280;57039;48.014;21.384;2023-03-13T09:45:07;101001.16;;;7.16;76.27
69766;BME280;57039;48.014;21.384;2023-03-13T09:46:47;101007.53;;;7.59;76.78
69766;BME280;57039;48.014;21.384;2023-03-13T09:48:01;100999.47;;;7.40;75.84
69766;BME280;57039;48.014;21.384;2023-03-13T09:50:32;100997.75;;;7.39;76.70
69766;BME280;57039;48.014;21.384;2023-03-13T09:51:38;100998.53;;;7.42;76.93
69766;BME280;57039;48.014;21.384;2023-03-13T09:52:47;100999.69;;;7.59;76.92
69766;BME280;57039;48.014;21.384;2023-03-13T09:53:58;100996.63;;;7.72;76.81
69766;BME280;57039;48.014;21.384;2023-03-13T09:56:23;100998.53;;;7.67;73.37
69766;BME280;57039;48.014;21.384;2023-03-13T09:58:56;100990.34;;;7.76;73.23
69766;BME280;57039;48.014;21.384;2023-03-13T10:00:05;100992.72;;;7.84;73.96
69766;BME280;57039;48.014;21.384;2023-03-13T10:01:16;100993.03;;;7.98;74.08
69766;BME280;57039;48.014;21.384;2023-03-13T10:02:28;101001.22;;;7.89;73.32
69766;BME280;57039;48.014;21.384;2023-03-13T10:03:38;100999.78;;;7.81;72.81
69766;BME280;57039;48.014;21.384;2023-03-13T10:04:46;101000.28;;;7.67;73.15
69766;BME280;57039;48.014;21.384;2023-03-13T10:05:56;100990.00;;;7.62;73.40
69766;BME280;57039;48.014;21.384;2023-03-13T10:07:01;101003.81;;;7.66;73.57
69766;BME280;57039;48.014;21.384;2023-03-13T10:09:28;100991.56;;;7.91;74.56
69766;BME280;57039;48.014;21.384;2023-03-13T10:11:50;100996.41;;;8.02;74.30
69766;BME280;57039;48.014;21.384;2023-03-13T10:13:00;100999.16;;;7.99;74.29
69766;BME280;57039;48.014;21.384;2023-03-13T10:14:15;100988.34;;;7.85;74.13
69766;BME280;57039;48.014;21.384;2023-03-13T10:15:58;101001.75;;;7.99;74.51
69766;BME280;57039;48.014;21.384;2023-03-13T10:17:17;100989.66;;;8.20;74.32
69766;BME280;57039;48.014;21.384;2023-03-13T10:18:24;100990.28;;;8.27;73.65
69766;BME280;57039;48.014;21.384;2023-03-13T10:19:34;100994.22;;;8.60;73.87
69766;BME280;57039;48.014;21.384;2023-03-13T10:20:39;100991.22;;;8.71;73.45
69766;BME280;57039;48.014;21.384;2023-03-13T10:21:50;100985.91;;;8.51;73.47
69766;BME280;57039;48.014;21.384;2023-03-13T10:23:03;100992.72;;;8.77;73.83
69766;BME280;57039;48.014;21.384;2023-03-13T10:25:32;100992.56;;;8.34;73.91
69766;BME280;57039;48.014;21.384;2023-03-13T10:26:36;100996.47;;;8.48;74.46
69766;BME280;57039;48.014;21.384;2023-03-13T10:27:44;100987.78;;;8.69;74.69
69766;BME280;57039;48.014;21.384;2023-03-13T10:29:01;100980.50;;;8.32;73.66
69766;BME280;57039;48.014;21.384;2023-03-13T10:30:24;100983.59;;;8.87;73.14
69766;BME280;57039;48.014;21.384;2023-03-13T10:31:34;100989.19;;;9.20;72.55
69766;BME280;57039;48.014;21.384;2023-03-13T10:32:38;100984.09;;;8.75;73.35
69766;BME280;57039;48.014;21.384;2023-03-13T10:33:42;100981.88;;;8.64;74.65
69766;BME280;57039;48.014;21.384;2023-03-13T10:34:52;100969.84;;;8.60;73.94
69766;BME280;57039;48.014;21.384;2023-03-13T10:36:10;100974.44;;;8.97;73.24
69766;BME280;57039;48.014;21.384;2023-03-13T10:37:15;100973.91;;;9.31;72.15
69766;BME280;57039;48.014;21.384;2023-03-13T10:38:21;100967.91;;;8.65;73.58
69766;BME280;57039;48.014;21.384;2023-03-13T10:39:28;100966.53;;;8.99;74.38
69766;BME280;57039;48.014;21.384;2023-03-13T10:40:31;100959.75;;;9.15;73.42
69766;BME280;57039;48.014;21.384;2023-03-13T10:41:36;100960.59;;;9.36;73.33
69766;BME280;57039;48.014;21.384;2023-03-13T10:42:44;100961.50;;;9.14;72.42
69766;BME280;57039;48.014;21.384;2023-03-13T10:43:51;100955.31;;;9.37;73.02
69766;BME280;57039;48.014;21.384;2023-03-13T10:44:59;100947.56;;;8.94;72.31
69766;BME280;57039;48.014;21.384;2023-03-13T10:46:04;100959.16;;;9.08;73.48
69766;BME280;57039;48.014;21.384;2023-03-13T10:47:12;100946.66;;;9.15;73.31
69766;BME280;57039;48.014;21.384;2023-03-13T10:48:22;100938.87;;;9.13;73.68
69766;BME280;57039;48.014;21.384;2023-03-13T10:49:27;100948.59;;;8.89;72.94
69766;BME280;57039;48.014;21.384;2023-03-13T10:50:33;100946.38;;;9.21;73.19
69766;BME280;57039;48.014;21.384;2023-03-13T10:51:39;100946.25;;;9.24;72.72
69766;BME280;57039;48.014;21.384;2023-03-13T10:52:45;100938.47;;;9.64;72.39
69766;BME280;57039;48.014;21.384;2023-03-13T10:53:49;100951.03;;;9.55;71.25
69766;BME280;57039;48.014;21.384;2023-03-13T10:55:01;100950.00;;;9.39;71.37
69766;BME280;57039;48.014;21.384;2023-03-13T10:56:13;100930.75;;;9.60;70.24
69766;BME280;57039;48.014;21.384;2023-03-13T10:58:29;100925.06;;;9.90;68.96
69766;BME280;57039;48.014;21.384;2023-03-13T10:59:39;100923.00;;;10.88;68.59
69766;BME280;57039;48.014;21.384;2023-03-13T11:00:45;100921.94;;;10.39;68.20
69766;BME280;57039;48.014;21.384;2023-03-13T11:01:50;100923.41;;;10.81;67.53
69766;BME280;57039;48.014;21.384;2023-03-13T11:02:53;100912.63;;;10.50;66.67
69766;BME280;57039;48.014;21.384;2023-03-13T11:03:57;100918.37;;;10.21;67.62
69766;BME280;57039;48.014;21.384;2023-03-13T11:06:34;100918.37;;;10.40;66.32
69766;BME280;57039;48.014;21.384;2023-03-13T11:07:46;100903.62;;;10.56;66.75
69766;BME280;57039;48.014;21.384;2023-03-13T11:08:59;100906.25;;;10.56;68.05
69766;BME280;57039;48.014;21.384;2023-03-13T11:10:20;100905.78;;;11.17;67.39
69766;BME280;57039;48.014;21.384;2023-03-13T11:11:26;100892.81;;;11.32;66.54
69766;BME280;57039;48.014;21.384;2023-03-13T11:12:34;100906.00;;;11.30;65.86
69766;BME280;57039;48.014;21.384;2023-03-13T11:13:40;100899.53;;;11.03;65.80
69766;BME280;57039;48.014;21.384;2023-03-13T11:14:44;100902.16;;;11.03;65.66
69766;BME280;57039;48.014;21.384;2023-03-13T11:16:09;100880.16;;;10.70;64.30
69766;BME280;57039;48.014;21.384;2023-03-13T11:17:31;100894.59;;;10.79;66.77
69766;BME280;57039;48.014;21.384;2023-03-13T11:21:56;100872.75;;;10.79;64.70
69766;BME280;57039;48.014;21.384;2023-03-13T11:23:10;100885.66;;;10.66;63.47
69766;BME280;57039;48.014;21.384;2023-03-13T11:26:00;100875.38;;;10.79;61.89
69766;BME280;57039;48.014;21.384;2023-03-13T11:27:18;100865.97;;;10.92;63.17
69766;BME280;57039;48.014;21.384;2023-03-13T11:31:36;100870.28;;;11.28;61.94
69766;BME280;57039;48.014;21.384;2023-03-13T11:32:55;100876.03;;;11.34;62.57
69766;BME280;57039;48.014;21.384;2023-03-13T11:35:46;100863.97;;;11.63;62.57
69766;BME280;57039;48.014;21.384;2023-03-13T11:37:00;100869.28;;;11.46;62.69
69766;BME280;57039;48.014;21.384;2023-03-13T11:38:17;100853.22;;;11.84;61.57
69766;BME280;57039;48.014;21.384;2023-03-13T11:39:46;100870.31;;;12.24;60.89
69766;BME280;57039;48.014;21.384;2023-03-13T11:42:11;100874.31;;;12.16;61.42
69766;BME280;57039;48.014;21.384;2023-03-13T11:45:05;100855.97;;;12.14;61.24
69766;BME280;57039;48.014;21.384;2023-03-13T11:46:21;100862.22;;;11.80;60.42
69766;BME280;57039;48.014;21.384;2023-03-13T11:48:10;100853.38;;;11.49;59.96
69766;BME280;57039;48.014;21.384;2023-03-13T11:51:02;100844.91;;;11.60;59.38
69766;BME280;57039;48.014;21.384;2023-03-13T11:56:22;100836.47;;;12.18;57.89
69766;BME280;57039;48.014;21.384;2023-03-13T11:57:43;100833.63;;;11.74;56.38
69766;BME280;57039;48.014;21.384;2023-03-13T11:58:57;100826.38;;;11.79;57.19
69766;BME280;57039;48.014;21.384;2023-03-13T12:01:39;100828.66;;;12.17;57.81
69766;BME280;57039;48.014;21.384;2023-03-13T12:02:48;100823.09;;;11.91;58.01
69766;BME280;57039;48.014;21.384;2023-03-13T12:06:04;100829.75;;;12.13;57.20
69766;BME280;57039;48.014;21.384;2023-03-13T12:08:02;100835.97;;;11.31;58.47
69766;BME280;57039;48.014;21.384;2023-03-13T12:09:42;100825.91;;;11.55;58.24
69766;BME280;57039;48.014;21.384;2023-03-13T12:11:17;100816.03;;;11.42;58.36
69766;BME280;57039;48.014;21.384;2023-03-13T12:14:38;100814.31;;;11.75;57.68
69766;BME280;57039;48.014;21.384;2023-03-13T12:16:17;100801.72;;;11.48;57.50
69766;BME280;57039;48.014;21.384;2023-03-13T12:18:08;100817.50;;;11.15;58.88
69766;BME280;57039;48.014;21.384;2023-03-13T12:19:55;100816.34;;;11.20;59.08
69766;BME280;57039;48.014;21.384;2023-03-13T12:21:29;100797.44;;;11.79;59.88
69766;BME280;57039;48.014;21.384;2023-03-13T12:24:59;100799.47;;;12.21;59.58
69766;BME280;57039;48.014;21.384;2023-03-13T12:27:40;100792.16;;;12.56;58.13
69766;BME280;57039;48.014;21.384;2023-03-13T12:28:47;100781.31;;;12.17;58.30
69766;BME280;57039;48.014;21.384;2023-03-13T12:30:26;100780.50;;;12.00;59.17
69766;BME280;57039;48.014;21.384;2023-03-13T12:31:46;100779.22;;;12.82;58.91
69766;BME280;57039;48.014;21.384;2023-03-13T12:32:58;100777.28;;;12.25;58.87
69766;BME280;57039;48.014;21.384;2023-03-13T12:34:29;100773.44;;;12.01;59.80
69766;BME280;57039;48.014;21.384;2023-03-13T12:35:36;100766.34;;;12.33;59.06
69766;BME280;57039;48.014;21.384;2023-03-13T12:40:43;100759.00;;;12.97;58.46
69766;BME280;57039;48.014;21.384;2023-03-13T12:42:15;100761.34;;;12.73;59.54
69766;BME280;57039;48.014;21.384;2023-03-13T12:43:23;100756.25;;;12.70;59.01
69766;BME280;57039;48.014;21.384;2023-03-13T12:44:29;100755.69;;;12.50;58.13
69766;BME280;57039;48.014;21.384;2023-03-13T12:45:35;100759.25;;;12.19;57.97
69766;BME280;57039;48.014;21.384;2023-03-13T12:49:39;100767.03;;;12.51;58.25
69766;BME280;57039;48.014;21.384;2023-03-13T12:55:12;100757.69;;;12.90;59.05
69766;BME280;57039;48.014;21.384;2023-03-13T12:59:35;100764.06;;;12.57;58.76
69766;BME280;57039;48.014;21.384;2023-03-13T13:00:45;100767.66;;;12.85;59.02
69766;BME280;57039;48.014;21.384;2023-03-13T13:01:53;100765.75;;;12.58;58.30
69766;BME280;57039;48.014;21.384;2023-03-13T13:04:25;100765.66;;;12.74;58.19
69766;BME280;57039;48.014;21.384;2023-03-13T13:05:32;100758.56;;;13.05;58.33
69766;BME280;57039;48.014;21.384;2023-03-13T13:06:53;100762.59;;;13.10;57.74
69766;BME280;57039;48.014;21.384;2023-03-13T13:08:01;100753.00;;;13.09;58.00
69766;BME280;57039;48.014;21.384;2023-03-13T13:09:14;100756.97;;;13.16;55.90
69766;BME280;57039;48.014;21.384;2023-03-13T13:10:23;100751.34;;;12.49;56.43
69766;BME280;57039;48.014;21.384;2023-03-13T13:12:42;100755.87;;;12.62;57.83
69766;BME280;57039;48.014;21.384;2023-03-13T13:13:45;100754.59;;;12.69;56.80
69766;BME280;57039;48.014;21.384;2023-03-13T13:15:59;100743.19;;;12.83;57.78
69766;BME280;57039;48.014;21.384;2023-03-13T13:18:25;100727.97;;;12.29;56.77
69766;BME280;57039;48.014;21.384;2023-03-13T13:20:48;100726.06;;;12.61;56.95
69766;BME280;57039;48.014;21.384;2023-03-13T13:23:40;100706.34;;;12.83;56.04
69766;BME280;57039;48.014;21.384;2023-03-13T13:24:50;100717.69;;;12.54;57.10
69766;BME280;57039;48.014;21.384;2023-03-13T13:25:55;100717.53;;;13.00;56.62
69766;BME280;57039;48.014;21.384;2023-03-13T13:28:35;100702.19;;;12.36;57.31
69766;BME280;57039;48.014;21.384;2023-03-13T13:29:50;100705.13;;;12.15;57.72
69766;BME280;57039;48.014;21.384;2023-03-13T13:30:54;100702.84;;;12.39;59.06
69766;BME280;57039;48.014;21.384;2023-03-13T13:31:58;100713.62;;;12.34;57.97
69766;BME280;57039;48.014;21.384;2023-03-13T13:35:36;100704.44;;;12.70;57.31
69766;BME280;57039;48.014;21.384;2023-03-13T13:36:39;100706.44;;;12.67;56.60
69766;BME280;57039;48.014;21.384;2023-03-13T13:37:44;100704.53;;;12.83;56.68
69766;BME280;57039;48.014;21.384;2023-03-13T13:38:50;100696.81;;;12.37;57.78
69766;BME280;57039;48.014;21.384;2023-03-13T13:40:16;100702.09;;;12.80;57.12
69766;BME280;57039;48.014;21.384;2023-03-13T13:41:26;100706.25;;;12.70;56.67
69766;BME280;57039;48.014;21.384;2023-03-13T13:42:45;100702.34;;;12.47;57.40
69766;BME280;57039;48.014;21.384;2023-03-13T13:43:49;100699.53;;;12.36;57.59
69766;BME280;57039;48.014;21.384;2023-03-13T13:46:31;100692.31;;;12.68;57.50
69766;BME280;57039;48.014;21.384;2023-03-13T13:47:35;100701.34;;;12.64;57.79
69766;BME280;57039;48.014;21.384;2023-03-13T13:48:39;100693.28;;;12.67;57.63
69766;BME280;57039;48.014;21.384;2023-03-13T13:49:53;100686.12;;;12.97;57.04
69766;BME280;57039;48.014;21.384;2023-03-13T13:52:18;100684.47;;;12.23;58.81
69766;BME280;57039;48.014;21.384;2023-03-13T13:53:47;100694.97;;;12.09;58.88
69766;BME280;57039;48.014;21.384;2023-03-13T13:54:56;100690.25;;;12.00;59.00
69766;BME280;57039;48.014;21.384;2023-03-13T13:55:59;100687.97;;;11.94;59.52
69766;BME280;57039;48.014;21.384;2023-03-13T13:57:13;100689.59;;;12.10;58.80
69766;BME280;57039;48.014;21.384;2023-03-13T13:58:31;100679.88;;;12.41;58.48
69766;BME280;57039;48.014;21.384;2023-03-13T13:59:41;100674.94;;;12.79;59.31
69766;BME280;57039;48.014;21.384;2023-03-13T14:01:04;100677.87;;;12.89;58.02
69766;BME280;57039;48.014;21.384;2023-03-13T14:02:19;100672.28;;;13.08;58.59
69766;BME280;57039;48.014;21.384;2023-03-13T14:03:29;100673.06;;;12.96;57.90
69766;BME280;57039;48.014;21.384;2023-03-13T14:05:49;100673.31;;;12.77;58.53
69766;BME280;57039;48.014;21.384;2023-03-13T14:06:56;100672.41;;;12.92;58.64
69766;BME280;57039;48.014;21.384;2023-03-13T14:09:38;100664.22;;;12.83;57.97
69766;BME280;57039;48.014;21.384;2023-03-13T14:12:32;100629.59;;;12.89;58.50
69766;BME280;57039;48.014;21.384;2023-03-13T14:13:36;100658.75;;;12.86;58.79
69766;BME280;57039;48.014;21.384;2023-03-13T14:14:38;100658.66;;;12.73;59.69
69766;BME280;57039;48.014;21.384;2023-03-13T14:15:43;100664.50;;;12.64;59.32
69766;BME280;57039;48.014;21.384;2023-03-13T14:16:49;100666.19;;;12.65;59.52
69766;BME280;57039;48.014;21.384;2023-03-13T14:17:58;100660.56;;;12.42;58.72
69766;BME280;57039;48.014;21.384;2023-03-13T14:19:02;100662.97;;;12.31;59.77
69766;BME280;57039;48.014;21.384;2023-03-13T14:21:22;100665.53;;;12.32;60.10
69766;BME280;57039;48.014;21.384;2023-03-13T14:22:43;100666.72;;;12.27;59.62
69766;BME280;57039;48.014;21.384;2023-03-13T14:23:47;100662.59;;;12.37;60.05
69766;BME280;57039;48.014;21.384;2023-03-13T14:24:57;100665.69;;;12.44;60.28
69766;BME280;57039;48.014;21.384;2023-03-13T14:26:15;100667.97;;;12.64;60.15
69766;BME280;57039;48.014;21.384;2023-03-13T14:27:19;100667.28;;;12.32;59.62
69766;BME280;57039;48.014;21.384;2023-03-13T14:28:26;100663.91;;;12.44;60.63
69766;BME280;57039;48.014;21.384;2023-03-13T14:29:30;100659.53;;;12.45;60.49
69766;BME280;57039;48.014;21.384;2023-03-13T14:30:33;100658.56;;;12.46;60.52
69766;BME280;57039;48.014;21.384;2023-03-13T14:31:37;100657.91;;;12.28;60.33
69766;BME280;57039;48.014;21.384;2023-03-13T14:32:41;100661.66;;;12.24;60.55
69766;BME280;57039;48.014;21.384;2023-03-13T14:33:47;100653.38;;;12.44;60.90
69766;BME280;57039;48.014;21.384;2023-03-13T14:34:50;100660.37;;;12.45;60.59
69766;BME280;57039;48.014;21.384;2023-03-13T14:35:53;100657.69;;;12.17;60.66
69766;BME280;57039;48.014;21.384;2023-03-13T14:37:00;100652.81;;;12.25;61.25
69766;BME280;57039;48.014;21.384;2023-03-13T14:38:23;100644.16;;;12.23;60.58
69766;BME280;57039;48.014;21.384;2023-03-13T14:40:37;100640.44;;;12.27;62.10
69766;BME280;57039;48.014;21.384;2023-03-13T14:41:44;100645.69;;;12.27;62.08
69766;BME280;57039;48.014;21.384;2023-03-13T14:42:56;100635.72;;;12.32;62.69
69766;BME280;57039;48.014;21.384;2023-03-13T14:44:05;100635.53;;;12.21;62.17
69766;BME280;57039;48.014;21.384;2023-03-13T14:45:17;100637.78;;;12.27;63.03
69766;BME280;57039;48.014;21.384;2023-03-13T14:46:28;100640.75;;;12.06;63.71
69766;BME280;57039;48.014;21.384;2023-03-13T14:47:32;100630.59;;;12.00;64.50
69766;BME280;57039;48.014;21.384;2023-03-13T14:48:35;100636.38;;;12.21;64.52
69766;BME280;57039;48.014;21.384;2023-03-13T14:49:39;100628.53;;;11.75;64.12
69766;BME280;57039;48.014;21.384;2023-03-13T14:50:41;100633.03;;;11.73;64.31
69766;BME280;57039;48.014;21.384;2023-03-13T14:51:49;100624.50;;;11.70;64.36
69766;BME280;57039;48.014;21.384;2023-03-13T14:53:03;100627.69;;;11.75;64.57
69766;BME280;57039;48.014;21.384;2023-03-13T14:54:36;100625.22;;;11.72;65.03
69766;BME280;57039;48.014;21.384;2023-03-13T14:55:39;100632.75;;;11.78;65.55
69766;BME280;57039;48.014;21.384;2023-03-13T14:56:42;100633.06;;;11.57;65.79
69766;BME280;57039;48.014;21.384;2023-03-13T14:57:55;100633.56;;;11.64;66.16
69766;BME280;57039;48.014;21.384;2023-03-13T14:59:18;100625.69;;;11.48;66.27
69766;BME280;57039;48.014;21.384;2023-03-13T15:01:36;100632.81;;;11.62;67.32
69766;BME280;57039;48.014;21.384;2023-03-13T15:02:39;100644.69;;;11.53;66.79
69766;BME280;57039;48.014;21.384;2023-03-13T15:03:44;100637.66;;;11.54;67.48
69766;BME280;57039;48.014;21.384;2023-03-13T15:05:01;100639.12;;;11.43;67.02
69766;BME280;57039;48.014;21.384;2023-03-13T15:07:14;100636.38;;;11.45;68.66
69766;BME280;57039;48.014;21.384;2023-03-13T15:08:19;100622.25;;;11.32;68.82
69766;BME280;57039;48.014;21.384;2023-03-13T15:09:23;100636.34;;;11.31;68.76
69766;BME280;57039;48.014;21.384;2023-03-13T15:10:34;100631.81;;;11.33;68.24
69766;BME280;57039;48.014;21.384;2023-03-13T15:11:44;100625.97;;;11.43;68.49
69766;BME280;57039;48.014;21.384;2023-03-13T15:12:56;100629.53;;;11.27;68.85
69766;BME280;57039;48.014;21.384;2023-03-13T15:14:00;100627.41;;;11.33;68.81
69766;BME280;57039;48.014;21.384;2023-03-13T15:15:03;100507.78;;;10.82;68.91
69766;BME280;57039;48.014;21.384;2023-03-13T15:16:17;100622.34;;;11.30;68.11
69766;BME280;57039;48.014;21.384;2023-03-13T15:17:24;100616.59;;;11.24;68.02
69766;BME280;57039;48.014;21.384;2023-03-13T15:18:33;100620.56;;;11.31;69.04
69766;BME280;57039;48.014;21.384;2023-03-13T15:19:36;100623.03;;;11.34;68.61
69766;BME280;57039;48.014;21.384;2023-03-13T15:20:39;100613.34;;;11.18;68.51
69766;BME280;57039;48.014;21.384;2023-03-13T15:21:42;100630.00;;;11.19;69.37
69766;BME280;57039;48.014;21.384;2023-03-13T15:22:45;100622.19;;;11.17;68.86
69766;BME280;57039;48.014;21.384;2023-03-13T15:24:02;100620.66;;;11.13;69.19
69766;BME280;57039;48.014;21.384;2023-03-13T15:25:21;100611.69;;;11.02;69.20
69766;BME280;57039;48.014;21.384;2023-03-13T15:26:25;100633.37;;;11.05;69.31
69766;BME280;57039;48.014;21.384;2023-03-13T15:27:28;100628.78;;;11.09;69.64
69766;BME280;57039;48.014;21.384;2023-03-13T15:28:31;100627.28;;;11.05;69.95
69766;BME280;57039;48.014;21.384;2023-03-13T15:29:34;100623.19;;;10.99;69.62
69766;BME280;57039;48.014;21.384;2023-03-13T15:30:38;100623.59;;;10.91;70.29
69766;BME280;57039;48.014;21.384;2023-03-13T15:31:41;100618.97;;;10.96;70.32
69766;BME280;57039;48.014;21.384;2023-03-13T15:32:45;100623.72;;;10.90;71.05
69766;BME280;57039;48.014;21.384;2023-03-13T15:33:55;100615.84;;;10.90;70.93
69766;BME280;57039;48.014;21.384;2023-03-13T15:34:59;100635.91;;;10.91;71.52
69766;BME280;57039;48.014;21.384;2023-03-13T15:36:04;100629.03;;;10.88;70.77
69766;BME280;57039;48.014;21.384;2023-03-13T15:37:10;100626.22;;;10.91;70.27
69766;BME280;57039;48.014;21.384;2023-03-13T15:38:19;100624.03;;;10.84;70.63
69766;BME280;57039;48.014;21.384;2023-03-13T15:39:22;100620.41;;;10.86;70.39
69766;BME280;57039;48.014;21.384;2023-03-13T15:40:27;100622.94;;;10.88;70.75
69766;BME280;57039;48.014;21.384;2023-03-13T15:41:32;100608.34;;;10.66;70.89
69766;BME280;57039;48.014;21.384;2023-03-13T15:42:35;100625.22;;;10.78;71.16
69766;BME280;57039;48.014;21.384;2023-03-13T15:43:38;100620.75;;;10.80;70.32
69766;BME280;57039;48.014;21.384;2023-03-13T15:44:41;100622.66;;;10.77;70.66
69766;BME280;57039;48.014;21.384;2023-03-13T15:45:45;100617.25;;;10.80;71.25
69766;BME280;57039;48.014;21.384;2023-03-13T15:46:55;100619.19;;;10.76;71.30
69766;BME280;57039;48.014;21.384;2023-03-13T15:47:59;100614.06;;;10.74;71.00
69766;BME280;57039;48.014;21.384;2023-03-13T15:49:03;100611.75;;;10.68;71.37
69766;BME280;57039;48.014;21.384;2023-03-13T15:50:18;100616.91;;;10.70;71.58
69766;BME280;57039;48.014;21.384;2023-03-13T15:51:21;100609.03;;;10.70;71.37
69766;BME280;57039;48.014;21.384;2023-03-13T15:52:24;100613.59;;;10.66;71.03
69766;BME280;57039;48.014;21.384;2023-03-13T15:53:29;100611.81;;;10.67;71.43
69766;BME280;57039;48.014;21.384;2023-03-13T15:54:33;100611.22;;;10.62;71.02
69766;BME280;57039;48.014;21.384;2023-03-13T15:55:35;100616.56;;;10.60;71.48
69766;BME280;57039;48.014;21.384;2023-03-13T15:56:38;100619.34;;;10.57;71.42
69766;BME280;57039;48.014;21.384;2023-03-13T15:57:44;100614.78;;;10.61;71.71
69766;BME280;57039;48.014;21.384;2023-03-13T15:58:50;100608.00;;;10.57;71.66
69766;BME280;57039;48.014;21.384;2023-03-13T15:59:53;100611.66;;;10.54;71.75
69766;BME280;57039;48.014;21.384;2023-03-13T16:00:56;100608.09;;;10.55;71.55
69766;BME280;57039;48.014;21.384;2023-03-13T16:01:59;100615.94;;;10.55;71.62
69766;BME280;57039;48.014;21.384;2023-03-13T16:03:02;100606.41;;;10.54;72.34
69766;BME280;57039;48.014;21.384;2023-03-13T16:04:05;100608.34;;;10.50;72.44
69766;BME280;57039;48.014;21.384;2023-03-13T16:05:08;100609.97;;;10.53;72.51
69766;BME280;57039;48.014;21.384;2023-03-13T16:06:17;100611.97;;;10.48;73.08
69766;BME280;57039;48.014;21.384;2023-03-13T16:07:22;100607.78;;;10.44;73.14
69766;BME280;57039;48.014;21.384;2023-03-13T16:08:32;100604.16;;;10.46;72.71
69766;BME280;57039;48.014;21.384;2023-03-13T16:09:42;100605.94;;;10.46;73.51
69766;BME280;57039;48.014;21.384;2023-03-13T16:10:45;100605.19;;;10.44;73.78
69766;BME280;57039;48.014;21.384;2023-03-13T16:11:48;100606.13;;;10.43;73.80
69766;BME280;57039;48.014;21.384;2023-03-13T16:12:52;100612.28;;;10.42;74.27
69766;BME280;57039;48.014;21.384;2023-03-13T16:13:55;100607.28;;;10.37;74.51
69766;BME280;57039;48.014;21.384;2023-03-13T16:14:58;100612.63;;;10.36;74.46
69766;BME280;57039;48.014;21.384;2023-03-13T16:16:04;100611.53;;;10.40;74.66
69766;BME280;57039;48.014;21.384;2023-03-13T16:17:15;100609.22;;;10.34;74.61
69766;BME280;57039;48.014;21.384;2023-03-13T16:18:21;100611.22;;;10.28;74.74
69766;BME280;57039;48.014;21.384;2023-03-13T16:19:24;100611.34;;;10.25;74.84
69766;BME280;57039;48.014;21.384;2023-03-13T16:20:27;100615.75;;;10.25;74.89